sensor_id;sensor_type;location;lat;lon;timestamp;P1;durP1;ratioP1;P2;durP2;ratioP2
28762;SDS011;15918;51.270;6.522;2023-07-20T00:01:35;3.97;;;3.20;;
28762;SDS011;15918;51.270;6.522;2023-07-20T00:04:01;5.97;;;3.83;;
28762;SDS011;15918;51.270;6.522;2023-07-20T00:06:26;4.72;;;3.50;;
28762;SDS011;15918;51.270;6.522;2023-07-20T00:08:55;5.15;;;3.88;;
28762;SDS011;15918;51.270;6.522;2023-07-20T00:11:21;6.65;;;3.85;;
28762;SDS011;15918;51.270;6.522;2023-07-20T00:13:50;5.05;;;3.63;;
28762;SDS011;15918;51.270;6.522;2023-07-20T00:16:16;5.15;;;3.15;;
28762;SDS011;15918;51.270;6.522;2023-07-20T00:18:41;5.47;;;3.70;;
28762;SDS011;15918;51.270;6.522;2023-07-20T00:21:07;4.72;;;3.45;;
28762;SDS011;15918;51.270;6.522;2023-07-20T00:23:33;5.60;;;3.88;;
28762;SDS011;15918;51.270;6.522;2023-07-20T00:25:58;6.95;;;3.72;;
28762;SDS011;15918;51.270;6.522;2023-07-20T00:28:24;6.45;;;3.92;;
28762;SDS011;15918;51.270;6.522;2023-07-20T00:30:49;5.47;;;3.67;;
28762;SDS011;15918;51.270;6.522;2023-07-20T00:33:16;9.20;;;4.30;;
28762;SDS011;15918;51.270;6.522;2023-07-20T00:35:42;5.40;;;3.60;;
28762;SDS011;15918;51.270;6.522;2023-07-20T00:38:07;9.65;;;4.50;;
28762;SDS011;15918;51.270;6.522;2023-07-20T00:40:40;5.63;;;3.97;;
28762;SDS011;15918;51.270;6.522;2023-07-20T00:43:06;7.88;;;3.75;;
28762;SDS011;15918;51.270;6.522;2023-07-20T00:45:33;6.50;;;4.22;;
28762;SDS011;15918;51.270;6.522;2023-07-20T00:47:59;6.72;;;3.80;;
28762;SDS011;15918;51.270;6.522;2023-07-20T00:50:26;7.00;;;4.28;;
28762;SDS011;15918;51.270;6.522;2023-07-20T00:52:56;4.78;;;3.97;;
28762;SDS011;15918;51.270;6.522;2023-07-20T00:55:26;5.32;;;4.20;;
28762;SDS011;15918;51.270;6.522;2023-07-20T00:57:53;5.03;;;3.67;;
28762;SDS011;15918;51.270;6.522;2023-07-20T01:00:18;4.32;;;3.38;;
28762;SDS011;15918;51.270;6.522;2023-07-20T01:02:45;5.55;;;4.10;;
28762;SDS011;15918;51.270;6.522;2023-07-20T01:05:11;5.72;;;4.20;;
28762;SDS011;15918;51.270;6.522;2023-07-20T01:07:58;5.95;;;4.22;;
28762;SDS011;15918;51.270;6.522;2023-07-20T01:10:33;5.28;;;4.32;;
28762;SDS011;15918;51.270;6.522;2023-07-20T01:13:04;5.43;;;4.20;;
28762;SDS011;15918;51.270;6.522;2023-07-20T01:15:35;6.43;;;3.97;;
28762;SDS011;15918;51.270;6.522;2023-07-20T01:18:01;5.68;;;3.97;;
28762;SDS011;15918;51.270;6.522;2023-07-20T01:20:29;3.92;;;3.53;;
28762;SDS011;15918;51.270;6.522;2023-07-20T01:23:06;5.07;;;4.38;;
28762;SDS011;15918;51.270;6.522;2023-07-20T01:28:26;5.50;;;3.95;;
28762;SDS011;15918;51.270;6.522;2023-07-20T01:31:25;8.40;;;4.07;;
28762;SDS011;15918;51.270;6.522;2023-07-20T01:33:54;6.00;;;4.35;;
28762;SDS011;15918;51.270;6.522;2023-07-20T01:36:22;5.78;;;4.28;;
28762;SDS011;15918;51.270;6.522;2023-07-20T01:38:50;6.93;;;4.40;;
28762;SDS011;15918;51.270;6.522;2023-07-20T01:41:17;5.30;;;4.20;;
28762;SDS011;15918;51.270;6.522;2023-07-20T01:43:43;5.68;;;4.53;;
28762;SDS011;15918;51.270;6.522;2023-07-20T01:46:09;5.63;;;4.00;;
28762;SDS011;15918;51.270;6.522;2023-07-20T01:48:35;4.90;;;3.38;;
28762;SDS011;15918;51.270;6.522;2023-07-20T01:51:00;5.15;;;3.85;;
28762;SDS011;15918;51.270;6.522;2023-07-20T01:53:26;6.00;;;3.72;;
28762;SDS011;15918;51.270;6.522;2023-07-20T01:55:54;4.82;;;3.38;;
28762;SDS011;15918;51.270;6.522;2023-07-20T01:58:21;4.38;;;3.55;;
28762;SDS011;15918;51.270;6.522;2023-07-20T02:00:47;7.30;;;3.70;;
28762;SDS011;15918;51.270;6.522;2023-07-20T02:03:12;4.78;;;3.85;;
28762;SDS011;15918;51.270;6.522;2023-07-20T02:05:38;4.65;;;3.72;;
28762;SDS011;15918;51.270;6.522;2023-07-20T02:08:04;7.18;;;4.68;;
28762;SDS011;15918;51.270;6.522;2023-07-20T02:10:30;5.85;;;3.90;;
28762;SDS011;15918;51.270;6.522;2023-07-20T02:12:56;5.75;;;3.97;;
28762;SDS011;15918;51.270;6.522;2023-07-20T02:15:21;7.70;;;3.90;;
28762;SDS011;15918;51.270;6.522;2023-07-20T02:17:47;6.13;;;3.70;;
28762;SDS011;15918;51.270;6.522;2023-07-20T02:20:13;3.33;;;3.03;;
28762;SDS011;15918;51.270;6.522;2023-07-20T02:22:39;7.18;;;3.40;;
28762;SDS011;15918;51.270;6.522;2023-07-20T02:25:05;5.90;;;3.50;;
28762;SDS011;15918;51.270;6.522;2023-07-20T02:27:32;4.85;;;3.60;;
28762;SDS011;15918;51.270;6.522;2023-07-20T02:30:00;6.72;;;3.28;;
28762;SDS011;15918;51.270;6.522;2023-07-20T02:32:28;6.85;;;3.75;;
28762;SDS011;15918;51.270;6.522;2023-07-20T02:34:53;5.30;;;3.35;;
28762;SDS011;15918;51.270;6.522;2023-07-20T02:37:19;5.18;;;3.53;;
28762;SDS011;15918;51.270;6.522;2023-07-20T02:39:45;5.55;;;3.40;;
28762;SDS011;15918;51.270;6.522;2023-07-20T02:42:10;4.82;;;3.00;;
28762;SDS011;15918;51.270;6.522;2023-07-20T02:44:36;5.30;;;3.92;;
28762;SDS011;15918;51.270;6.522;2023-07-20T02:47:01;4.63;;;3.97;;
28762;SDS011;15918;51.270;6.522;2023-07-20T02:49:27;5.70;;;3.40;;
28762;SDS011;15918;51.270;6.522;2023-07-20T02:51:53;7.70;;;3.90;;
28762;SDS011;15918;51.270;6.522;2023-07-20T02:54:19;5.30;;;3.60;;
28762;SDS011;15918;51.270;6.522;2023-07-20T02:56:45;4.43;;;3.47;;
28762;SDS011;15918;51.270;6.522;2023-07-20T02:59:11;4.63;;;3.08;;
28762;SDS011;15918;51.270;6.522;2023-07-20T03:01:36;4.63;;;3.42;;
28762;SDS011;15918;51.270;6.522;2023-07-20T03:04:02;5.32;;;3.67;;
28762;SDS011;15918;51.270;6.522;2023-07-20T03:06:29;6.90;;;3.63;;
28762;SDS011;15918;51.270;6.522;2023-07-20T03:08:55;3.92;;;3.50;;
28762;SDS011;15918;51.270;6.522;2023-07-20T03:11:21;4.28;;;3.50;;
28762;SDS011;15918;51.270;6.522;2023-07-20T03:13:47;4.93;;;3.60;;
28762;SDS011;15918;51.270;6.522;2023-07-20T03:16:14;4.05;;;3.50;;
28762;SDS011;15918;51.270;6.522;2023-07-20T03:18:42;5.25;;;3.63;;
28762;SDS011;15918;51.270;6.522;2023-07-20T03:21:08;5.07;;;3.90;;
28762;SDS011;15918;51.270;6.522;2023-07-20T03:23:39;6.15;;;4.38;;
28762;SDS011;15918;51.270;6.522;2023-07-20T03:26:05;7.15;;;3.90;;
28762;SDS011;15918;51.270;6.522;2023-07-20T03:28:33;5.57;;;4.28;;
28762;SDS011;15918;51.270;6.522;2023-07-20T03:30:59;6.88;;;4.53;;
28762;SDS011;15918;51.270;6.522;2023-07-20T03:33:25;4.65;;;3.90;;
28762;SDS011;15918;51.270;6.522;2023-07-20T03:35:52;6.78;;;4.53;;
28762;SDS011;15918;51.270;6.522;2023-07-20T03:38:18;5.75;;;4.22;;
28762;SDS011;15918;51.270;6.522;2023-07-20T03:40:51;5.22;;;4.53;;
28762;SDS011;15918;51.270;6.522;2023-07-20T03:43:17;6.57;;;4.50;;
28762;SDS011;15918;51.270;6.522;2023-07-20T03:45:43;5.97;;;4.68;;
28762;SDS011;15918;51.270;6.522;2023-07-20T03:48:11;5.22;;;4.30;;
28762;SDS011;15918;51.270;6.522;2023-07-20T03:50:36;5.65;;;4.32;;
28762;SDS011;15918;51.270;6.522;2023-07-20T03:53:02;8.18;;;4.80;;
28762;SDS011;15918;51.270;6.522;2023-07-20T03:55:28;6.07;;;4.97;;
28762;SDS011;15918;51.270;6.522;2023-07-20T03:57:54;5.80;;;4.70;;
28762;SDS011;15918;51.270;6.522;2023-07-20T04:00:19;7.43;;;5.22;;
28762;SDS011;15918;51.270;6.522;2023-07-20T04:02:45;10.23;;;5.38;;
28762;SDS011;15918;51.270;6.522;2023-07-20T04:05:10;9.57;;;5.93;;
28762;SDS011;15918;51.270;6.522;2023-07-20T04:07:36;7.90;;;6.15;;
28762;SDS011;15918;51.270;6.522;2023-07-20T04:10:02;8.30;;;6.43;;
28762;SDS011;15918;51.270;6.522;2023-07-20T04:12:27;6.88;;;5.78;;
28762;SDS011;15918;51.270;6.522;2023-07-20T04:14:53;8.30;;;6.10;;
28762;SDS011;15918;51.270;6.522;2023-07-20T04:17:19;8.02;;;6.28;;
28762;SDS011;15918;51.270;6.522;2023-07-20T04:19:44;18.48;;;6.85;;
28762;SDS011;15918;51.270;6.522;2023-07-20T04:22:10;8.73;;;6.45;;
28762;SDS011;15918;51.270;6.522;2023-07-20T04:24:35;8.95;;;6.55;;
28762;SDS011;15918;51.270;6.522;2023-07-20T04:27:01;9.45;;;6.80;;
28762;SDS011;15918;51.270;6.522;2023-07-20T04:29:26;10.82;;;6.72;;
28762;SDS011;15918;51.270;6.522;2023-07-20T04:31:52;8.30;;;6.57;;
28762;SDS011;15918;51.270;6.522;2023-07-20T04:34:18;12.35;;;7.22;;
28762;SDS011;15918;51.270;6.522;2023-07-20T04:36:43;9.38;;;7.90;;
28762;SDS011;15918;51.270;6.522;2023-07-20T04:39:09;9.52;;;7.60;;
28762;SDS011;15918;51.270;6.522;2023-07-20T04:41:35;12.00;;;8.27;;
28762;SDS011;15918;51.270;6.522;2023-07-20T04:44:01;10.10;;;7.03;;
28762;SDS011;15918;51.270;6.522;2023-07-20T04:46:27;9.55;;;7.10;;
28762;SDS011;15918;51.270;6.522;2023-07-20T04:48:53;10.20;;;7.28;;
28762;SDS011;15918;51.270;6.522;2023-07-20T04:51:19;8.02;;;7.07;;
28762;SDS011;15918;51.270;6.522;2023-07-20T04:53:45;13.07;;;8.88;;
28762;SDS011;15918;51.270;6.522;2023-07-20T04:56:11;14.85;;;8.50;;
28762;SDS011;15918;51.270;6.522;2023-07-20T04:58:37;11.73;;;8.20;;
28762;SDS011;15918;51.270;6.522;2023-07-20T05:01:03;9.35;;;7.55;;
28762;SDS011;15918;51.270;6.522;2023-07-20T05:03:28;12.52;;;8.02;;
28762;SDS011;15918;51.270;6.522;2023-07-20T05:05:54;11.35;;;9.05;;
28762;SDS011;15918;51.270;6.522;2023-07-20T05:08:20;12.02;;;8.45;;
28762;SDS011;15918;51.270;6.522;2023-07-20T05:10:47;13.52;;;8.05;;
28762;SDS011;15918;51.270;6.522;2023-07-20T05:13:13;13.05;;;8.05;;
28762;SDS011;15918;51.270;6.522;2023-07-20T05:15:38;9.98;;;8.32;;
28762;SDS011;15918;51.270;6.522;2023-07-20T05:18:04;9.95;;;7.70;;
28762;SDS011;15918;51.270;6.522;2023-07-20T05:20:30;11.68;;;8.00;;
28762;SDS011;15918;51.270;6.522;2023-07-20T05:22:56;11.38;;;8.60;;
28762;SDS011;15918;51.270;6.522;2023-07-20T05:25:22;13.65;;;9.18;;
28762;SDS011;15918;51.270;6.522;2023-07-20T05:27:48;15.02;;;8.70;;
28762;SDS011;15918;51.270;6.522;2023-07-20T05:30:13;12.30;;;7.43;;
28762;SDS011;15918;51.270;6.522;2023-07-20T05:32:39;10.10;;;7.90;;
28762;SDS011;15918;51.270;6.522;2023-07-20T05:35:05;10.40;;;7.00;;
28762;SDS011;15918;51.270;6.522;2023-07-20T05:37:31;11.10;;;8.13;;
28762;SDS011;15918;51.270;6.522;2023-07-20T05:39:57;10.88;;;8.43;;
28762;SDS011;15918;51.270;6.522;2023-07-20T05:42:22;11.02;;;8.48;;
28762;SDS011;15918;51.270;6.522;2023-07-20T05:44:48;11.75;;;9.32;;
28762;SDS011;15918;51.270;6.522;2023-07-20T05:47:15;11.98;;;8.98;;
28762;SDS011;15918;51.270;6.522;2023-07-20T05:49:40;10.50;;;8.60;;
28762;SDS011;15918;51.270;6.522;2023-07-20T05:52:06;9.55;;;8.27;;
28762;SDS011;15918;51.270;6.522;2023-07-20T05:54:32;10.60;;;9.02;;
28762;SDS011;15918;51.270;6.522;2023-07-20T05:56:57;11.40;;;8.02;;
28762;SDS011;15918;51.270;6.522;2023-07-20T05:59:24;13.30;;;8.48;;
28762;SDS011;15918;51.270;6.522;2023-07-20T06:01:49;13.88;;;8.75;;
28762;SDS011;15918;51.270;6.522;2023-07-20T06:04:15;9.40;;;7.45;;
28762;SDS011;15918;51.270;6.522;2023-07-20T06:06:41;8.88;;;7.07;;
28762;SDS011;15918;51.270;6.522;2023-07-20T06:09:10;7.88;;;6.35;;
28762;SDS011;15918;51.270;6.522;2023-07-20T06:11:40;10.02;;;6.70;;
28762;SDS011;15918;51.270;6.522;2023-07-20T06:14:11;8.77;;;6.05;;
28762;SDS011;15918;51.270;6.522;2023-07-20T06:16:37;8.52;;;5.70;;
28762;SDS011;15918;51.270;6.522;2023-07-20T06:19:02;6.60;;;6.00;;
28762;SDS011;15918;51.270;6.522;2023-07-20T06:21:28;7.15;;;6.15;;
28762;SDS011;15918;51.270;6.522;2023-07-20T06:23:54;8.73;;;6.20;;
28762;SDS011;15918;51.270;6.522;2023-07-20T06:26:19;6.95;;;5.53;;
28762;SDS011;15918;51.270;6.522;2023-07-20T06:28:46;7.40;;;5.68;;
28762;SDS011;15918;51.270;6.522;2023-07-20T06:31:11;9.23;;;6.10;;
28762;SDS011;15918;51.270;6.522;2023-07-20T06:33:37;7.20;;;5.63;;
28762;SDS011;15918;51.270;6.522;2023-07-20T06:36:03;7.68;;;5.50;;
28762;SDS011;15918;51.270;6.522;2023-07-20T06:38:29;8.52;;;5.47;;
28762;SDS011;15918;51.270;6.522;2023-07-20T06:40:54;7.55;;;5.60;;
28762;SDS011;15918;51.270;6.522;2023-07-20T06:43:20;6.15;;;4.65;;
28762;SDS011;15918;51.270;6.522;2023-07-20T06:45:50;7.72;;;4.68;;
28762;SDS011;15918;51.270;6.522;2023-07-20T06:48:17;4.82;;;4.32;;
28762;SDS011;15918;51.270;6.522;2023-07-20T06:50:43;5.32;;;4.10;;
28762;SDS011;15918;51.270;6.522;2023-07-20T06:53:08;5.07;;;3.97;;
28762;SDS011;15918;51.270;6.522;2023-07-20T06:55:34;4.35;;;3.30;;
28762;SDS011;15918;51.270;6.522;2023-07-20T06:57:59;7.47;;;3.22;;
28762;SDS011;15918;51.270;6.522;2023-07-20T07:00:25;5.28;;;3.47;;
28762;SDS011;15918;51.270;6.522;2023-07-20T07:02:51;3.15;;;2.85;;
28762;SDS011;15918;51.270;6.522;2023-07-20T07:05:16;4.05;;;3.38;;
28762;SDS011;15918;51.270;6.522;2023-07-20T07:07:43;3.33;;;2.80;;
28762;SDS011;15918;51.270;6.522;2023-07-20T07:10:08;5.45;;;3.10;;
28762;SDS011;15918;51.270;6.522;2023-07-20T07:12:34;5.65;;;3.38;;
28762;SDS011;15918;51.270;6.522;2023-07-20T07:15:00;3.08;;;2.63;;
28762;SDS011;15918;51.270;6.522;2023-07-20T07:17:27;3.30;;;3.00;;
28762;SDS011;15918;51.270;6.522;2023-07-20T07:19:52;4.85;;;3.80;;
28762;SDS011;15918;51.270;6.522;2023-07-20T07:22:21;3.58;;;2.80;;
28762;SDS011;15918;51.270;6.522;2023-07-20T07:24:47;3.40;;;2.90;;
28762;SDS011;15918;51.270;6.522;2023-07-20T07:27:13;5.35;;;2.85;;
28762;SDS011;15918;51.270;6.522;2023-07-20T07:29:41;2.95;;;2.58;;
28762;SDS011;15918;51.270;6.522;2023-07-20T07:32:09;2.65;;;2.25;;
28762;SDS011;15918;51.270;6.522;2023-07-20T07:34:36;5.65;;;2.75;;
28762;SDS011;15918;51.270;6.522;2023-07-20T07:37:02;3.45;;;2.50;;
28762;SDS011;15918;51.270;6.522;2023-07-20T07:39:28;2.40;;;2.20;;
28762;SDS011;15918;51.270;6.522;2023-07-20T07:41:54;2.05;;;1.83;;
28762;SDS011;15918;51.270;6.522;2023-07-20T07:44:20;2.40;;;1.60;;
28762;SDS011;15918;51.270;6.522;2023-07-20T07:46:46;2.35;;;1.83;;
28762;SDS011;15918;51.270;6.522;2023-07-20T07:49:12;2.40;;;1.65;;
28762;SDS011;15918;51.270;6.522;2023-07-20T07:51:37;1.70;;;1.60;;
28762;SDS011;15918;51.270;6.522;2023-07-20T07:54:03;2.33;;;1.80;;
28762;SDS011;15918;51.270;6.522;2023-07-20T07:56:29;2.60;;;1.42;;
28762;SDS011;15918;51.270;6.522;2023-07-20T07:58:55;2.05;;;1.67;;
28762;SDS011;15918;51.270;6.522;2023-07-20T08:01:21;2.35;;;1.50;;
28762;SDS011;15918;51.270;6.522;2023-07-20T08:03:47;1.50;;;1.40;;
28762;SDS011;15918;51.270;6.522;2023-07-20T08:06:13;2.42;;;1.45;;
28762;SDS011;15918;51.270;6.522;2023-07-20T08:08:39;1.85;;;1.50;;
28762;SDS011;15918;51.270;6.522;2023-07-20T08:11:05;2.13;;;1.70;;
28762;SDS011;15918;51.270;6.522;2023-07-20T08:13:30;2.88;;;1.55;;
28762;SDS011;15918;51.270;6.522;2023-07-20T08:15:56;2.35;;;1.50;;
28762;SDS011;15918;51.270;6.522;2023-07-20T08:18:22;1.73;;;1.58;;
28762;SDS011;15918;51.270;6.522;2023-07-20T08:20:48;2.33;;;1.13;;
28762;SDS011;15918;51.270;6.522;2023-07-20T08:23:14;2.25;;;1.13;;
28762;SDS011;15918;51.270;6.522;2023-07-20T08:25:40;2.25;;;1.00;;
28762;SDS011;15918;51.270;6.522;2023-07-20T08:28:08;1.58;;;0.95;;
28762;SDS011;15918;51.270;6.522;2023-07-20T08:30:42;2.10;;;1.20;;
28762;SDS011;15918;51.270;6.522;2023-07-20T08:33:09;1.50;;;1.10;;
28762;SDS011;15918;51.270;6.522;2023-07-20T08:35:35;1.10;;;0.90;;
28762;SDS011;15918;51.270;6.522;2023-07-20T08:38:01;1.77;;;1.02;;
28762;SDS011;15918;51.270;6.522;2023-07-20T08:40:27;2.65;;;1.00;;
28762;SDS011;15918;51.270;6.522;2023-07-20T08:42:54;1.52;;;1.10;;
28762;SDS011;15918;51.270;6.522;2023-07-20T08:45:22;1.52;;;0.80;;
28762;SDS011;15918;51.270;6.522;2023-07-20T08:47:50;1.27;;;0.85;;
28762;SDS011;15918;51.270;6.522;2023-07-20T08:50:16;0.98;;;0.90;;
28762;SDS011;15918;51.270;6.522;2023-07-20T08:52:42;1.02;;;0.90;;
28762;SDS011;15918;51.270;6.522;2023-07-20T08:55:08;0.77;;;0.70;;
28762;SDS011;15918;51.270;6.522;2023-07-20T08:57:34;1.65;;;0.90;;
28762;SDS011;15918;51.270;6.522;2023-07-20T09:00:03;2.42;;;0.68;;
28762;SDS011;15918;51.270;6.522;2023-07-20T09:02:38;1.77;;;0.80;;
28762;SDS011;15918;51.270;6.522;2023-07-20T09:05:07;1.00;;;0.77;;
28762;SDS011;15918;51.270;6.522;2023-07-20T09:07:39;1.27;;;0.63;;
28762;SDS011;15918;51.270;6.522;2023-07-20T09:10:05;1.67;;;0.70;;
28762;SDS011;15918;51.270;6.522;2023-07-20T09:12:35;1.02;;;0.70;;
28762;SDS011;15918;51.270;6.522;2023-07-20T09:15:03;1.75;;;0.75;;
28762;SDS011;15918;51.270;6.522;2023-07-20T09:17:29;0.70;;;0.70;;
28762;SDS011;15918;51.270;6.522;2023-07-20T09:19:55;1.42;;;0.70;;
28762;SDS011;15918;51.270;6.522;2023-07-20T09:22:21;0.57;;;0.57;;
28762;SDS011;15918;51.270;6.522;2023-07-20T09:24:46;0.80;;;0.57;;
28762;SDS011;15918;51.270;6.522;2023-07-20T09:27:12;1.05;;;0.82;;
28762;SDS011;15918;51.270;6.522;2023-07-20T09:30:11;1.27;;;0.70;;
28762;SDS011;15918;51.270;6.522;2023-07-20T09:32:32;1.02;;;0.80;;
28762;SDS011;15918;51.270;6.522;2023-07-20T09:35:04;1.88;;;1.00;;
28762;SDS011;15918;51.270;6.522;2023-07-20T09:37:30;0.77;;;0.60;;
28762;SDS011;15918;51.270;6.522;2023-07-20T09:39:58;3.20;;;1.08;;
28762;SDS011;15918;51.270;6.522;2023-07-20T09:42:25;1.25;;;1.02;;
28762;SDS011;15918;51.270;6.522;2023-07-20T09:44:52;1.83;;;1.05;;
28762;SDS011;15918;51.270;6.522;2023-07-20T09:47:21;0.80;;;0.80;;
28762;SDS011;15918;51.270;6.522;2023-07-20T09:49:47;1.50;;;1.00;;
28762;SDS011;15918;51.270;6.522;2023-07-20T09:52:13;2.33;;;1.27;;
28762;SDS011;15918;51.270;6.522;2023-07-20T09:54:41;2.20;;;1.30;;
28762;SDS011;15918;51.270;6.522;2023-07-20T09:57:10;1.60;;;1.20;;
28762;SDS011;15918;51.270;6.522;2023-07-20T09:59:38;1.95;;;0.90;;
28762;SDS011;15918;51.270;6.522;2023-07-20T10:02:04;2.05;;;0.82;;
28762;SDS011;15918;51.270;6.522;2023-07-20T10:04:39;1.10;;;1.00;;
28762;SDS011;15918;51.270;6.522;2023-07-20T10:07:07;1.08;;;0.90;;
28762;SDS011;15918;51.270;6.522;2023-07-20T10:09:37;2.58;;;1.23;;
28762;SDS011;15918;51.270;6.522;2023-07-20T10:12:05;0.93;;;0.90;;
28762;SDS011;15918;51.270;6.522;2023-07-20T10:14:32;1.02;;;0.73;;
28762;SDS011;15918;51.270;6.522;2023-07-20T10:17:03;1.05;;;0.90;;
28762;SDS011;15918;51.270;6.522;2023-07-20T10:19:43;1.90;;;0.90;;
28762;SDS011;15918;51.270;6.522;2023-07-20T10:22:14;0.88;;;0.85;;
28762;SDS011;15918;51.270;6.522;2023-07-20T10:24:44;1.80;;;1.13;;
28762;SDS011;15918;51.270;6.522;2023-07-20T10:27:12;3.80;;;0.93;;
28762;SDS011;15918;51.270;6.522;2023-07-20T10:29:38;1.20;;;1.10;;
28762;SDS011;15918;51.270;6.522;2023-07-20T10:32:05;1.50;;;1.40;;
28762;SDS011;15918;51.270;6.522;2023-07-20T10:34:32;2.72;;;1.50;;
28762;SDS011;15918;51.270;6.522;2023-07-20T10:36:58;1.38;;;1.27;;
28762;SDS011;15918;51.270;6.522;2023-07-20T10:39:24;2.28;;;1.10;;
28762;SDS011;15918;51.270;6.522;2023-07-20T10:42:08;1.00;;;1.00;;
28762;SDS011;15918;51.270;6.522;2023-07-20T10:44:38;1.20;;;1.08;;
28762;SDS011;15918;51.270;6.522;2023-07-20T10:47:11;1.10;;;1.00;;
28762;SDS011;15918;51.270;6.522;2023-07-20T10:49:59;1.75;;;1.00;;
28762;SDS011;15918;51.270;6.522;2023-07-20T10:52:26;2.88;;;1.00;;
28762;SDS011;15918;51.270;6.522;2023-07-20T10:55:09;2.42;;;1.00;;
28762;SDS011;15918;51.270;6.522;2023-07-20T10:57:41;1.38;;;1.08;;
28762;SDS011;15918;51.270;6.522;2023-07-20T11:00:11;0.95;;;0.95;;
28762;SDS011;15918;51.270;6.522;2023-07-20T11:02:45;0.80;;;0.75;;
28762;SDS011;15918;51.270;6.522;2023-07-20T11:07:57;1.10;;;0.88;;
28762;SDS011;15918;51.270;6.522;2023-07-20T11:10:22;1.98;;;1.02;;
28762;SDS011;15918;51.270;6.522;2023-07-20T11:15:46;2.95;;;0.90;;
28762;SDS011;15918;51.270;6.522;2023-07-20T11:18:21;1.35;;;0.82;;
28762;SDS011;15918;51.270;6.522;2023-07-20T11:20:51;0.95;;;0.80;;
28762;SDS011;15918;51.270;6.522;2023-07-20T11:23:18;0.70;;;0.70;;
28762;SDS011;15918;51.270;6.522;2023-07-20T11:25:45;1.10;;;1.00;;
28762;SDS011;15918;51.270;6.522;2023-07-20T11:28:11;2.15;;;0.80;;
28762;SDS011;15918;51.270;6.522;2023-07-20T11:30:37;1.08;;;0.80;;
28762;SDS011;15918;51.270;6.522;2023-07-20T11:33:08;4.57;;;1.10;;
28762;SDS011;15918;51.270;6.522;2023-07-20T11:35:44;1.02;;;0.80;;
28762;SDS011;15918;51.270;6.522;2023-07-20T11:38:13;1.35;;;0.90;;
28762;SDS011;15918;51.270;6.522;2023-07-20T11:40:43;0.70;;;0.70;;
28762;SDS011;15918;51.270;6.522;2023-07-20T11:43:12;2.80;;;0.98;;
28762;SDS011;15918;51.270;6.522;2023-07-20T11:45:38;0.70;;;0.70;;
28762;SDS011;15918;51.270;6.522;2023-07-20T11:48:04;1.27;;;0.80;;
28762;SDS011;15918;51.270;6.522;2023-07-20T11:50:30;2.95;;;0.80;;
28762;SDS011;15918;51.270;6.522;2023-07-20T11:52:56;1.38;;;0.93;;
28762;SDS011;15918;51.270;6.522;2023-07-20T11:55:22;0.80;;;0.80;;
28762;SDS011;15918;51.270;6.522;2023-07-20T11:58:01;0.95;;;0.80;;
28762;SDS011;15918;51.270;6.522;2023-07-20T12:00:27;0.95;;;0.75;;
28762;SDS011;15918;51.270;6.522;2023-07-20T12:02:53;0.77;;;0.77;;
28762;SDS011;15918;51.270;6.522;2023-07-20T12:05:19;1.55;;;0.80;;
28762;SDS011;15918;51.270;6.522;2023-07-20T12:07:47;1.10;;;1.00;;
28762;SDS011;15918;51.270;6.522;2023-07-20T12:10:15;0.98;;;0.80;;
28762;SDS011;15918;51.270;6.522;2023-07-20T12:12:41;1.05;;;0.95;;
28762;SDS011;15918;51.270;6.522;2023-07-20T12:17:51;0.95;;;0.85;;
28762;SDS011;15918;51.270;6.522;2023-07-20T12:20:24;0.82;;;0.82;;
28762;SDS011;15918;51.270;6.522;2023-07-20T12:22:50;0.98;;;0.85;;
28762;SDS011;15918;51.270;6.522;2023-07-20T12:25:16;2.05;;;1.27;;
28762;SDS011;15918;51.270;6.522;2023-07-20T12:27:44;1.17;;;1.10;;
28762;SDS011;15918;51.270;6.522;2023-07-20T12:30:09;1.67;;;1.10;;
28762;SDS011;15918;51.270;6.522;2023-07-20T12:32:35;1.63;;;0.80;;
28762;SDS011;15918;51.270;6.522;2023-07-20T12:35:01;2.22;;;1.10;;
28762;SDS011;15918;51.270;6.522;2023-07-20T12:37:27;1.05;;;0.95;;
28762;SDS011;15918;51.270;6.522;2023-07-20T12:39:52;2.00;;;1.00;;
28762;SDS011;15918;51.270;6.522;2023-07-20T12:42:18;0.93;;;0.60;;
28762;SDS011;15918;51.270;6.522;2023-07-20T12:44:44;1.85;;;0.60;;
28762;SDS011;15918;51.270;6.522;2023-07-20T12:47:09;0.80;;;0.80;;
28762;SDS011;15918;51.270;6.522;2023-07-20T12:49:35;1.02;;;0.90;;
28762;SDS011;15918;51.270;6.522;2023-07-20T12:52:00;0.57;;;0.57;;
28762;SDS011;15918;51.270;6.522;2023-07-20T12:54:26;1.40;;;1.00;;
28762;SDS011;15918;51.270;6.522;2023-07-20T12:56:52;1.50;;;0.90;;
28762;SDS011;15918;51.270;6.522;2023-07-20T12:59:17;1.95;;;0.80;;
28762;SDS011;15918;51.270;6.522;2023-07-20T13:01:43;1.00;;;0.63;;
28762;SDS011;15918;51.270;6.522;2023-07-20T13:04:09;2.80;;;1.05;;
28762;SDS011;15918;51.270;6.522;2023-07-20T13:06:35;1.90;;;1.10;;
28762;SDS011;15918;51.270;6.522;2023-07-20T13:09:01;0.95;;;0.95;;
28762;SDS011;15918;51.270;6.522;2023-07-20T13:11:27;2.20;;;0.90;;
28762;SDS011;15918;51.270;6.522;2023-07-20T13:13:52;1.10;;;1.00;;
28762;SDS011;15918;51.270;6.522;2023-07-20T13:16:18;1.27;;;0.85;;
28762;SDS011;15918;51.270;6.522;2023-07-20T13:18:43;2.15;;;0.77;;
28762;SDS011;15918;51.270;6.522;2023-07-20T13:21:09;1.63;;;0.98;;
28762;SDS011;15918;51.270;6.522;2023-07-20T13:23:39;1.33;;;1.08;;
28762;SDS011;15918;51.270;6.522;2023-07-20T13:26:04;1.33;;;0.77;;
28762;SDS011;15918;51.270;6.522;2023-07-20T13:28:30;0.75;;;0.70;;
28762;SDS011;15918;51.270;6.522;2023-07-20T13:30:56;1.80;;;0.90;;
28762;SDS011;15918;51.270;6.522;2023-07-20T13:33:21;0.65;;;0.65;;
28762;SDS011;15918;51.270;6.522;2023-07-20T13:35:47;0.98;;;0.80;;
28762;SDS011;15918;51.270;6.522;2023-07-20T13:38:13;1.40;;;0.80;;
28762;SDS011;15918;51.270;6.522;2023-07-20T13:40:38;2.30;;;0.95;;
28762;SDS011;15918;51.270;6.522;2023-07-20T13:43:04;0.98;;;0.80;;
28762;SDS011;15918;51.270;6.522;2023-07-20T13:45:30;1.63;;;0.88;;
28762;SDS011;15918;51.270;6.522;2023-07-20T13:47:55;1.35;;;1.10;;
28762;SDS011;15918;51.270;6.522;2023-07-20T13:50:21;1.10;;;1.00;;
28762;SDS011;15918;51.270;6.522;2023-07-20T13:52:46;1.50;;;1.00;;
28762;SDS011;15918;51.270;6.522;2023-07-20T13:55:12;2.45;;;0.90;;
28762;SDS011;15918;51.270;6.522;2023-07-20T13:57:38;0.90;;;0.90;;
28762;SDS011;15918;51.270;6.522;2023-07-20T14:00:04;1.55;;;0.80;;
28762;SDS011;15918;51.270;6.522;2023-07-20T14:02:30;1.48;;;1.20;;
28762;SDS011;15918;51.270;6.522;2023-07-20T14:04:55;3.10;;;1.00;;
28762;SDS011;15918;51.270;6.522;2023-07-20T14:07:21;0.93;;;0.70;;
28762;SDS011;15918;51.270;6.522;2023-07-20T14:09:47;5.40;;;1.15;;
28762;SDS011;15918;51.270;6.522;2023-07-20T14:12:13;2.00;;;1.20;;
28762;SDS011;15918;51.270;6.522;2023-07-20T14:14:39;2.90;;;0.93;;
28762;SDS011;15918;51.270;6.522;2023-07-20T14:17:06;1.15;;;1.05;;
28762;SDS011;15918;51.270;6.522;2023-07-20T14:19:32;1.27;;;1.02;;
28762;SDS011;15918;51.270;6.522;2023-07-20T14:21:57;0.93;;;0.93;;
28762;SDS011;15918;51.270;6.522;2023-07-20T14:24:24;2.05;;;1.15;;
28762;SDS011;15918;51.270;6.522;2023-07-20T14:26:51;0.85;;;0.85;;
28762;SDS011;15918;51.270;6.522;2023-07-20T14:29:16;1.67;;;0.98;;
28762;SDS011;15918;51.270;6.522;2023-07-20T14:31:44;2.30;;;1.05;;
28762;SDS011;15918;51.270;6.522;2023-07-20T14:34:10;2.17;;;1.20;;
28762;SDS011;15918;51.270;6.522;2023-07-20T14:36:35;1.08;;;0.98;;
28762;SDS011;15918;51.270;6.522;2023-07-20T14:39:01;1.70;;;0.93;;
28762;SDS011;15918;51.270;6.522;2023-07-20T14:41:27;3.00;;;1.05;;
28762;SDS011;15918;51.270;6.522;2023-07-20T14:43:52;2.33;;;1.05;;
28762;SDS011;15918;51.270;6.522;2023-07-20T14:46:18;1.20;;;0.90;;
28762;SDS011;15918;51.270;6.522;2023-07-20T14:48:44;1.23;;;1.13;;
28762;SDS011;15918;51.270;6.522;2023-07-20T14:51:09;1.17;;;0.82;;
28762;SDS011;15918;51.270;6.522;2023-07-20T14:53:35;1.33;;;1.15;;
28762;SDS011;15918;51.270;6.522;2023-07-20T14:56:01;1.00;;;0.90;;